sensor_id;sensor_type;location;lat;lon;timestamp;temperature;humidity
57390;DHT22;43217;52.694;6.214;2023-03-20T00:00:26;9.10;99.90
57390;DHT22;43217;52.694;6.214;2023-03-20T00:02:53;9.00;99.90
57390;DHT22;43217;52.694;6.214;2023-03-20T00:05:21;9.00;99.90
57390;DHT22;43217;52.694;6.214;2023-03-20T00:07:47;9.00;99.90
57390;DHT22;43217;52.694;6.214;2023-03-20T00:10:15;9.00;99.90
57390;DHT22;43217;52.694;6.214;2023-03-20T00:12:42;9.00;99.90
57390;DHT22;43217;52.694;6.214;2023-03-20T00:15:27;8.90;99.90
57390;DHT22;43217;52.694;6.214;2023-03-20T00:17:53;8.90;99.90
57390;DHT22;43217;52.694;6.214;2023-03-20T00:20:20;8.90;99.90
57390;DHT22;43217;52.694;6.214;2023-03-20T00:22:46;8.90;99.90
57390;DHT22;43217;52.694;6.214;2023-03-20T00:25:16;8.90;99.90
57390;DHT22;43217;52.694;6.214;2023-03-20T00:27:45;8.80;99.90
57390;DHT22;43217;52.694;6.214;2023-03-20T00:30:28;8.90;99.90
57390;DHT22;43217;52.694;6.214;2023-03-20T00:32:56;8.80;99.90
57390;DHT22;43217;52.694;6.214;2023-03-20T00:35:26;8.80;99.90
57390;DHT22;43217;52.694;6.214;2023-03-20T00:37:56;8.80;99.90
57390;DHT22;43217;52.694;6.214;2023-03-20T00:40:27;8.80;99.90
57390;DHT22;43217;52.694;6.214;2023-03-20T00:42:58;8.80;99.90
57390;DHT22;43217;52.694;6.214;2023-03-20T00:45:25;8.70;99.90
57390;DHT22;43217;52.694;6.214;2023-03-20T00:47:51;8.70;99.90
57390;DHT22;43217;52.694;6.214;2023-03-20T00:50:23;8.70;99.90
57390;DHT22;43217;52.694;6.214;2023-03-20T00:52:50;8.70;99.90
57390;DHT22;43217;52.694;6.214;2023-03-20T00:55:17;8.70;99.90
57390;DHT22;43217;52.694;6.214;2023-03-20T00:57:47;8.70;99.90
57390;DHT22;43217;52.694;6.214;2023-03-20T01:00:40;8.70;99.90
57390;DHT22;43217;52.694;6.214;2023-03-20T01:03:19;8.70;99.90
57390;DHT22;43217;52.694;6.214;2023-03-20T01:05:47;8.70;99.90
57390;DHT22;43217;52.694;6.214;2023-03-20T01:08:24;8.70;99.90
57390;DHT22;43217;52.694;6.214;2023-03-20T01:10:52;8.70;99.90
57390;DHT22;43217;52.694;6.214;2023-03-20T01:13:29;8.70;99.90
57390;DHT22;43217;52.694;6.214;2023-03-20T01:15:56;8.70;99.90
57390;DHT22;43217;52.694;6.214;2023-03-20T01:18:24;8.70;99.90
57390;DHT22;43217;52.694;6.214;2023-03-20T01:20:50;8.70;99.90
57390;DHT22;43217;52.694;6.214;2023-03-20T01:23:20;8.70;99.90
57390;DHT22;43217;52.694;6.214;2023-03-20T01:25:47;8.70;99.90
57390;DHT22;43217;52.694;6.214;2023-03-20T01:28:21;8.70;99.90
57390;DHT22;43217;52.694;6.214;2023-03-20T01:30:48;8.70;99.90
57390;DHT22;43217;52.694;6.214;2023-03-20T01:33:20;8.70;99.90
57390;DHT22;43217;52.694;6.214;2023-03-20T01:35:47;8.70;99.90
57390;DHT22;43217;52.694;6.214;2023-03-20T01:38:22;8.70;99.90
57390;DHT22;43217;52.694;6.214;2023-03-20T01:40:55;8.70;99.90
57390;DHT22;43217;52.694;6.214;2023-03-20T01:43:23;8.70;99.90
57390;DHT22;43217;52.694;6.214;2023-03-20T01:53:42;8.70;99.90
57390;DHT22;43217;52.694;6.214;2023-03-20T01:56:09;8.70;99.90
57390;DHT22;43217;52.694;6.214;2023-03-20T01:58:41;8.60;99.90
57390;DHT22;43217;52.694;6.214;2023-03-20T02:01:11;8.60;99.90
57390;DHT22;43217;52.694;6.214;2023-03-20T02:03:38;8.60;99.90
57390;DHT22;43217;52.694;6.214;2023-03-20T02:06:05;8.60;99.90
57390;DHT22;43217;52.694;6.214;2023-03-20T02:08:31;8.60;99.90
57390;DHT22;43217;52.694;6.214;2023-03-20T02:11:01;8.60;99.90
57390;DHT22;43217;52.694;6.214;2023-03-20T02:13:29;8.60;99.90
57390;DHT22;43217;52.694;6.214;2023-03-20T02:16:08;8.60;99.90
57390;DHT22;43217;52.694;6.214;2023-03-20T02:18:35;8.60;99.90
57390;DHT22;43217;52.694;6.214;2023-03-20T02:21:29;8.60;99.90
57390;DHT22;43217;52.694;6.214;2023-03-20T02:24:45;8.60;99.90
57390;DHT22;43217;52.694;6.214;2023-03-20T02:27:52;8.60;99.90
57390;DHT22;43217;52.694;6.214;2023-03-20T02:51:49;8.60;99.90
57390;DHT22;43217;52.694;6.214;2023-03-20T02:54:27;8.60;99.90
57390;DHT22;43217;52.694;6.214;2023-03-20T02:57:07;8.60;99.90
57390;DHT22;43217;52.694;6.214;2023-03-20T03:02:20;8.60;99.90
57390;DHT22;43217;52.694;6.214;2023-03-20T03:04:55;8.50;99.90
57390;DHT22;43217;52.694;6.214;2023-03-20T03:07:24;8.50;99.90
57390;DHT22;43217;52.694;6.214;2023-03-20T03:10:26;8.50;99.90
57390;DHT22;43217;52.694;6.214;2023-03-20T03:12:47;8.50;99.90
57390;DHT22;43217;52.694;6.214;2023-03-20T03:15:26;8.50;99.90
57390;DHT22;43217;52.694;6.214;2023-03-20T03:17:54;8.50;99.90
57390;DHT22;43217;52.694;6.214;2023-03-20T03:20:36;8.50;99.90
57390;DHT22;43217;52.694;6.214;2023-03-20T03:23:03;8.50;99.90
57390;DHT22;43217;52.694;6.214;2023-03-20T03:25:33;8.50;99.90
57390;DHT22;43217;52.694;6.214;2023-03-20T03:28:19;8.50;99.90
57390;DHT22;43217;52.694;6.214;2023-03-20T03:30:48;8.40;99.90
57390;DHT22;43217;52.694;6.214;2023-03-20T03:33:20;8.50;99.90
57390;DHT22;43217;52.694;6.214;2023-03-20T03:35:47;8.40;99.90
57390;DHT22;43217;52.694;6.214;2023-03-20T03:41:12;8.40;99.90
57390;DHT22;43217;52.694;6.214;2023-03-20T03:43:52;8.40;99.90
57390;DHT22;43217;52.694;6.214;2023-03-20T03:46:37;8.40;99.90
57390;DHT22;43217;52.694;6.214;2023-03-20T03:49:04;8.40;99.90
57390;DHT22;43217;52.694;6.214;2023-03-20T03:51:34;8.40;99.90
57390;DHT22;43217;52.694;6.214;2023-03-20T03:54:08;8.40;99.90
57390;DHT22;43217;52.694;6.214;2023-03-20T03:56:37;8.30;99.90
57390;DHT22;43217;52.694;6.214;2023-03-20T03:59:09;8.30;99.90
57390;DHT22;43217;52.694;6.214;2023-03-20T04:01:37;8.20;99.90
57390;DHT22;43217;52.694;6.214;2023-03-20T04:04:09;8.20;99.90
57390;DHT22;43217;52.694;6.214;2023-03-20T04:06:36;8.20;99.90
57390;DHT22;43217;52.694;6.214;2023-03-20T04:09:02;8.20;99.90
57390;DHT22;43217;52.694;6.214;2023-03-20T04:11:28;8.20;99.90
57390;DHT22;43217;52.694;6.214;2023-03-20T04:13:54;8.20;99.90
57390;DHT22;43217;52.694;6.214;2023-03-20T04:16:22;8.20;99.90
57390;DHT22;43217;52.694;6.214;2023-03-20T04:18:48;8.10;99.90
57390;DHT22;43217;52.694;6.214;2023-03-20T04:21:14;8.10;99.90
57390;DHT22;43217;52.694;6.214;2023-03-20T04:23:40;8.10;99.90
57390;DHT22;43217;52.694;6.214;2023-03-20T04:26:06;8.10;99.90
57390;DHT22;43217;52.694;6.214;2023-03-20T04:28:33;8.00;99.90
57390;DHT22;43217;52.694;6.214;2023-03-20T04:31:00;8.10;99.90
57390;DHT22;43217;52.694;6.214;2023-03-20T04:33:28;8.00;99.90
57390;DHT22;43217;52.694;6.214;2023-03-20T04:35:54;8.10;99.90
57390;DHT22;43217;52.694;6.214;2023-03-20T04:38:20;8.10;99.90
57390;DHT22;43217;52.694;6.214;2023-03-20T04:40:47;8.00;99.90
57390;DHT22;43217;52.694;6.214;2023-03-20T04:43:14;8.00;99.90
57390;DHT22;43217;52.694;6.214;2023-03-20T04:45:40;8.00;99.90
57390;DHT22;43217;52.694;6.214;2023-03-20T04:48:05;8.00;99.90
57390;DHT22;43217;52.694;6.214;2023-03-20T04:50:32;8.00;99.90
57390;DHT22;43217;52.694;6.214;2023-03-20T04:52:58;8.00;99.90
57390;DHT22;43217;52.694;6.214;2023-03-20T04:55:24;8.00;99.90
57390;DHT22;43217;52.694;6.214;2023-03-20T04:57:49;7.90;99.90
57390;DHT22;43217;52.694;6.214;2023-03-20T05:00:16;7.90;99.90
57390;DHT22;43217;52.694;6.214;2023-03-20T05:02:43;7.90;99.90
57390;DHT22;43217;52.694;6.214;2023-03-20T05:05:09;7.90;99.90
57390;DHT22;43217;52.694;6.214;2023-03-20T05:07:35;7.90;99.90
57390;DHT22;43217;52.694;6.214;2023-03-20T05:10:02;7.90;99.90
57390;DHT22;43217;52.694;6.214;2023-03-20T05:12:28;7.90;99.90
57390;DHT22;43217;52.694;6.214;2023-03-20T05:14:53;7.90;99.90
57390;DHT22;43217;52.694;6.214;2023-03-20T05:17:20;7.90;99.90
57390;DHT22;43217;52.694;6.214;2023-03-20T05:19:46;7.90;99.90
57390;DHT22;43217;52.694;6.214;2023-03-20T05:22:12;7.90;99.90
57390;DHT22;43217;52.694;6.214;2023-03-20T05:24:38;7.90;99.90
57390;DHT22;43217;52.694;6.214;2023-03-20T05:27:04;7.90;99.90
57390;DHT22;43217;52.694;6.214;2023-03-20T05:29:29;7.90;99.90
57390;DHT22;43217;52.694;6.214;2023-03-20T05:31:55;7.90;99.90
57390;DHT22;43217;52.694;6.214;2023-03-20T05:34:21;7.90;99.90
57390;DHT22;43217;52.694;6.214;2023-03-20T05:36:47;7.90;99.90
57390;DHT22;43217;52.694;6.214;2023-03-20T05:39:12;7.90;99.90
57390;DHT22;43217;52.694;6.214;2023-03-20T05:41:38;7.90;99.90
57390;DHT22;43217;52.694;6.214;2023-03-20T05:44:04;7.90;99.90
57390;DHT22;43217;52.694;6.214;2023-03-20T05:46:30;7.90;99.90
57390;DHT22;43217;52.694;6.214;2023-03-20T05:48:56;7.90;99.90
57390;DHT22;43217;52.694;6.214;2023-03-20T05:51:21;7.80;99.90
57390;DHT22;43217;52.694;6.214;2023-03-20T05:53:47;7.90;99.90
57390;DHT22;43217;52.694;6.214;2023-03-20T05:56:15;7.80;99.90
57390;DHT22;43217;52.694;6.214;2023-03-20T05:58:40;7.90;99.90
57390;DHT22;43217;52.694;6.214;2023-03-20T06:01:06;7.90;99.90
57390;DHT22;43217;52.694;6.214;2023-03-20T06:03:32;7.80;99.90
57390;DHT22;43217;52.694;6.214;2023-03-20T06:06:02;7.80;99.90
57390;DHT22;43217;52.694;6.214;2023-03-20T06:08:28;7.80;99.90
57390;DHT22;43217;52.694;6.214;2023-03-20T06:10:55;7.90;99.90
57390;DHT22;43217;52.694;6.214;2023-03-20T06:13:20;7.90;99.90
57390;DHT22;43217;52.694;6.214;2023-03-20T06:15:46;7.90;99.90
57390;DHT22;43217;52.694;6.214;2023-03-20T06:18:12;7.90;99.90
57390;DHT22;43217;52.694;6.214;2023-03-20T06:20:37;8.00;99.90
57390;DHT22;43217;52.694;6.214;2023-03-20T06:23:03;8.00;99.90
57390;DHT22;43217;52.694;6.214;2023-03-20T06:25:29;8.00;99.90
57390;DHT22;43217;52.694;6.214;2023-03-20T06:27:54;8.00;99.90
57390;DHT22;43217;52.694;6.214;2023-03-20T06:30:20;8.10;99.90
57390;DHT22;43217;52.694;6.214;2023-03-20T06:32:46;8.10;99.90
57390;DHT22;43217;52.694;6.214;2023-03-20T06:35:12;8.10;99.90
57390;DHT22;43217;52.694;6.214;2023-03-20T06:37:39;8.10;99.90
57390;DHT22;43217;52.694;6.214;2023-03-20T06:40:06;8.10;99.90
57390;DHT22;43217;52.694;6.214;2023-03-20T06:42:32;8.10;99.90
57390;DHT22;43217;52.694;6.214;2023-03-20T06:44:57;8.10;99.90
57390;DHT22;43217;52.694;6.214;2023-03-20T06:47:23;8.10;99.90
57390;DHT22;43217;52.694;6.214;2023-03-20T06:49:48;8.10;99.90
57390;DHT22;43217;52.694;6.214;2023-03-20T06:52:16;8.10;99.90
57390;DHT22;43217;52.694;6.214;2023-03-20T06:54:42;8.10;99.90
57390;DHT22;43217;52.694;6.214;2023-03-20T06:57:08;8.10;99.90
57390;DHT22;43217;52.694;6.214;2023-03-20T06:59:34;8.10;99.90
57390;DHT22;43217;52.694;6.214;2023-03-20T07:02:01;8.10;99.90
57390;DHT22;43217;52.694;6.214;2023-03-20T07:04:27;8.10;99.90
57390;DHT22;43217;52.694;6.214;2023-03-20T07:06:52;8.10;99.90
57390;DHT22;43217;52.694;6.214;2023-03-20T07:09:18;8.10;99.90
57390;DHT22;43217;52.694;6.214;2023-03-20T07:11:44;8.10;99.90
57390;DHT22;43217;52.694;6.214;2023-03-20T07:14:10;8.10;99.90
57390;DHT22;43217;52.694;6.214;2023-03-20T07:16:36;8.10;99.90
57390;DHT22;43217;52.694;6.214;2023-03-20T07:19:02;8.20;99.90
57390;DHT22;43217;52.694;6.214;2023-03-20T07:21:28;8.20;99.90
57390;DHT22;43217;52.694;6.214;2023-03-20T07:23:54;8.20;99.90
57390;DHT22;43217;52.694;6.214;2023-03-20T07:26:20;8.30;99.90
57390;DHT22;43217;52.694;6.214;2023-03-20T07:28:45;8.40;99.90
57390;DHT22;43217;52.694;6.214;2023-03-20T07:31:22;8.40;99.90
57390;DHT22;43217;52.694;6.214;2023-03-20T07:33:48;8.40;99.90
57390;DHT22;43217;52.694;6.214;2023-03-20T07:36:14;8.40;99.90
57390;DHT22;43217;52.694;6.214;2023-03-20T07:38:40;8.50;99.90
57390;DHT22;43217;52.694;6.214;2023-03-20T07:41:06;8.50;99.90
57390;DHT22;43217;52.694;6.214;2023-03-20T07:43:32;8.50;99.90
57390;DHT22;43217;52.694;6.214;2023-03-20T07:46:01;8.60;99.90
57390;DHT22;43217;52.694;6.214;2023-03-20T07:48:27;8.60;99.90
57390;DHT22;43217;52.694;6.214;2023-03-20T07:50:52;8.70;99.90
57390;DHT22;43217;52.694;6.214;2023-03-20T07:53:18;8.80;99.90
57390;DHT22;43217;52.694;6.214;2023-03-20T07:55:44;8.80;99.90
57390;DHT22;43217;52.694;6.214;2023-03-20T07:58:11;8.90;99.90
57390;DHT22;43217;52.694;6.214;2023-03-20T08:00:36;8.90;99.90
57390;DHT22;43217;52.694;6.214;2023-03-20T08:03:03;8.90;99.90
57390;DHT22;43217;52.694;6.214;2023-03-20T08:05:29;9.00;99.90
57390;DHT22;43217;52.694;6.214;2023-03-20T08:07:54;9.00;99.90
57390;DHT22;43217;52.694;6.214;2023-03-20T08:10:20;9.10;99.90
57390;DHT22;43217;52.694;6.214;2023-03-20T08:12:46;9.10;99.90
57390;DHT22;43217;52.694;6.214;2023-03-20T08:15:12;9.20;99.90
57390;DHT22;43217;52.694;6.214;2023-03-20T08:17:41;9.30;99.90
57390;DHT22;43217;52.694;6.214;2023-03-20T08:20:08;9.30;99.90
57390;DHT22;43217;52.694;6.214;2023-03-20T08:22:36;9.40;99.90
57390;DHT22;43217;52.694;6.214;2023-03-20T08:25:02;9.40;99.90
57390;DHT22;43217;52.694;6.214;2023-03-20T08:27:27;9.40;99.90
57390;DHT22;43217;52.694;6.214;2023-03-20T08:29:53;9.50;99.90
57390;DHT22;43217;52.694;6.214;2023-03-20T08:32:19;9.50;99.90
57390;DHT22;43217;52.694;6.214;2023-03-20T08:34:45;9.50;99.90
57390;DHT22;43217;52.694;6.214;2023-03-20T08:37:10;9.60;99.90
57390;DHT22;43217;52.694;6.214;2023-03-20T08:39:38;9.70;99.90
57390;DHT22;43217;52.694;6.214;2023-03-20T08:42:05;9.70;99.90
57390;DHT22;43217;52.694;6.214;2023-03-20T08:44:31;9.90;99.90
57390;DHT22;43217;52.694;6.214;2023-03-20T08:46:57;10.10;99.90
57390;DHT22;43217;52.694;6.214;2023-03-20T08:49:23;10.20;99.90
57390;DHT22;43217;52.694;6.214;2023-03-20T08:51:49;10.30;99.90
57390;DHT22;43217;52.694;6.214;2023-03-20T08:54:14;10.50;99.90
57390;DHT22;43217;52.694;6.214;2023-03-20T08:56:43;10.60;99.90
57390;DHT22;43217;52.694;6.214;2023-03-20T08:59:09;10.80;99.90
57390;DHT22;43217;52.694;6.214;2023-03-20T09:01:35;10.80;99.90
57390;DHT22;43217;52.694;6.214;2023-03-20T09:04:00;10.90;99.90
57390;DHT22;43217;52.694;6.214;2023-03-20T09:06:26;10.80;99.90
57390;DHT22;43217;52.694;6.214;2023-03-20T09:08:53;10.90;99.90
57390;DHT22;43217;52.694;6.214;2023-03-20T09:11:20;10.90;99.90
57390;DHT22;43217;52.694;6.214;2023-03-20T09:13:46;11.00;99.90
57390;DHT22;43217;52.694;6.214;2023-03-20T09:16:12;11.10;99.90
57390;DHT22;43217;52.694;6.214;2023-03-20T09:18:37;11.10;99.90
57390;DHT22;43217;52.694;6.214;2023-03-20T09:21:03;11.10;99.90
57390;DHT22;43217;52.694;6.214;2023-03-20T09:23:29;11.10;99.90
57390;DHT22;43217;52.694;6.214;2023-03-20T09:25:54;11.20;99.90
57390;DHT22;43217;52.694;6.214;2023-03-20T09:28:20;11.30;99.90
57390;DHT22;43217;52.694;6.214;2023-03-20T09:30:46;11.30;99.90
57390;DHT22;43217;52.694;6.214;2023-03-20T09:33:12;11.30;99.90
57390;DHT22;43217;52.694;6.214;2023-03-20T09:35:39;11.40;99.90
57390;DHT22;43217;52.694;6.214;2023-03-20T09:38:05;11.40;99.90
57390;DHT22;43217;52.694;6.214;2023-03-20T09:40:49;11.40;99.90
57390;DHT22;43217;52.694;6.214;2023-03-20T09:43:21;11.40;99.90
57390;DHT22;43217;52.694;6.214;2023-03-20T09:48:40;11.20;99.90
57390;DHT22;43217;52.694;6.214;2023-03-20T09:53:55;11.20;99.90
57390;DHT22;43217;52.694;6.214;2023-03-20T09:56:24;11.10;99.90
57390;DHT22;43217;52.694;6.214;2023-03-20T09:58:58;11.10;99.90
57390;DHT22;43217;52.694;6.214;2023-03-20T10:01:52;11.00;99.90
57390;DHT22;43217;52.694;6.214;2023-03-20T10:04:18;10.90;99.90
57390;DHT22;43217;52.694;6.214;2023-03-20T10:06:44;10.80;99.90
57390;DHT22;43217;52.694;6.214;2023-03-20T10:09:22;10.70;99.90
57390;DHT22;43217;52.694;6.214;2023-03-20T10:12:16;10.70;99.90
57390;DHT22;43217;52.694;6.214;2023-03-20T10:15:13;10.70;99.90
57390;DHT22;43217;52.694;6.214;2023-03-20T10:17:55;10.80;99.90
57390;DHT22;43217;52.694;6.214;2023-03-20T10:20:35;10.80;99.90
57390;DHT22;43217;52.694;6.214;2023-03-20T10:23:06;10.90;99.90
57390;DHT22;43217;52.694;6.214;2023-03-20T10:25:45;10.90;99.90
57390;DHT22;43217;52.694;6.214;2023-03-20T10:28:16;10.90;99.90
57390;DHT22;43217;52.694;6.214;2023-03-20T10:34:32;10.80;99.90
57390;DHT22;43217;52.694;6.214;2023-03-20T10:42:29;10.60;99.90
57390;DHT22;43217;52.694;6.214;2023-03-20T10:45:07;10.60;99.90
57390;DHT22;43217;52.694;6.214;2023-03-20T10:47:39;10.60;99.90
57390;DHT22;43217;52.694;6.214;2023-03-20T10:50:16;10.60;99.90
57390;DHT22;43217;52.694;6.214;2023-03-20T10:52:43;10.60;99.90
57390;DHT22;43217;52.694;6.214;2023-03-20T10:55:26;10.60;99.90
57390;DHT22;43217;52.694;6.214;2023-03-20T10:58:10;10.60;99.90
57390;DHT22;43217;52.694;6.214;2023-03-20T11:00:44;10.60;99.90
57390;DHT22;43217;52.694;6.214;2023-03-20T11:03:23;10.60;99.90
57390;DHT22;43217;52.694;6.214;2023-03-20T11:06:03;10.60;99.90
57390;DHT22;43217;52.694;6.214;2023-03-20T11:08:34;10.70;99.90
57390;DHT22;43217;52.694;6.214;2023-03-20T11:11:04;10.80;99.90
57390;DHT22;43217;52.694;6.214;2023-03-20T11:15:55;10.90;99.90
57390;DHT22;43217;52.694;6.214;2023-03-20T11:18:26;10.90;99.90
57390;DHT22;43217;52.694;6.214;2023-03-20T11:20:56;10.80;99.90
57390;DHT22;43217;52.694;6.214;2023-03-20T11:23:28;10.70;99.90
57390;DHT22;43217;52.694;6.214;2023-03-20T11:25:58;10.60;99.90
57390;DHT22;43217;52.694;6.214;2023-03-20T11:28:35;10.60;99.90
57390;DHT22;43217;52.694;6.214;2023-03-20T11:33:50;10.60;99.90
57390;DHT22;43217;52.694;6.214;2023-03-20T11:36:26;10.70;99.90
57390;DHT22;43217;52.694;6.214;2023-03-20T11:39:05;10.70;99.90
57390;DHT22;43217;52.694;6.214;2023-03-20T11:41:31;10.70;99.90
57390;DHT22;43217;52.694;6.214;2023-03-20T11:43:57;10.60;99.90
57390;DHT22;43217;52.694;6.214;2023-03-20T11:46:24;10.60;99.90
57390;DHT22;43217;52.694;6.214;2023-03-20T11:49:17;10.70;99.90
57390;DHT22;43217;52.694;6.214;2023-03-20T11:51:43;10.70;99.90
57390;DHT22;43217;52.694;6.214;2023-03-20T11:54:16;10.70;99.90
57390;DHT22;43217;52.694;6.214;2023-03-20T11:56:59;10.60;99.90
57390;DHT22;43217;52.694;6.214;2023-03-20T11:59:33;10.70;99.90
57390;DHT22;43217;52.694;6.214;2023-03-20T12:02:11;10.60;99.90
57390;DHT22;43217;52.694;6.214;2023-03-20T12:04:41;10.60;99.90
57390;DHT22;43217;52.694;6.214;2023-03-20T12:07:28;10.60;99.90
57390;DHT22;43217;52.694;6.214;2023-03-20T12:10:02;10.60;99.90
57390;DHT22;43217;52.694;6.214;2023-03-20T12:12:48;10.50;99.90
57390;DHT22;43217;52.694;6.214;2023-03-20T12:15:35;10.50;99.90
57390;DHT22;43217;52.694;6.214;2023-03-20T12:18:19;10.40;99.90
57390;DHT22;43217;52.694;6.214;2023-03-20T12:21:22;10.40;99.90
57390;DHT22;43217;52.694;6.214;2023-03-20T12:23:55;10.30;99.90
57390;DHT22;43217;52.694;6.214;2023-03-20T12:26:35;10.30;99.90
57390;DHT22;43217;52.694;6.214;2023-03-20T12:29:29;10.30;99.90
57390;DHT22;43217;52.694;6.214;2023-03-20T12:32:22;10.20;99.90
57390;DHT22;43217;52.694;6.214;2023-03-20T12:34:53;10.20;99.90
57390;DHT22;43217;52.694;6.214;2023-03-20T12:37:21;10.20;99.90
57390;DHT22;43217;52.694;6.214;2023-03-20T12:39:52;10.10;99.90
57390;DHT22;43217;52.694;6.214;2023-03-20T12:42:36;10.10;99.90
57390;DHT22;43217;52.694;6.214;2023-03-20T12:45:19;10.00;99.90
57390;DHT22;43217;52.694;6.214;2023-03-20T12:50:35;9.90;99.90
57390;DHT22;43217;52.694;6.214;2023-03-20T12:56:00;9.80;99.90
57390;DHT22;43217;52.694;6.214;2023-03-20T13:01:55;9.70;99.90
57390;DHT22;43217;52.694;6.214;2023-03-20T13:04:39;9.70;99.90
57390;DHT22;43217;52.694;6.214;2023-03-20T13:07:38;9.70;99.90
57390;DHT22;43217;52.694;6.214;2023-03-20T13:10:19;9.70;99.90
57390;DHT22;43217;52.694;6.214;2023-03-20T13:12:49;9.70;99.90
57390;DHT22;43217;52.694;6.214;2023-03-20T13:15:39;9.60;99.90
57390;DHT22;43217;52.694;6.214;2023-03-20T13:20:55;9.50;99.90
57390;DHT22;43217;52.694;6.214;2023-03-20T13:23:42;9.40;99.90
57390;DHT22;43217;52.694;6.214;2023-03-20T13:29:41;9.40;99.90
57390;DHT22;43217;52.694;6.214;2023-03-20T13:35:32;9.40;99.90
57390;DHT22;43217;52.694;6.214;2023-03-20T13:38:10;9.40;99.90
57390;DHT22;43217;52.694;6.214;2023-03-20T13:40:42;9.30;99.90
57390;DHT22;43217;52.694;6.214;2023-03-20T13:43:34;9.30;99.90
57390;DHT22;43217;52.694;6.214;2023-03-20T13:46:11;9.30;99.90
57390;DHT22;43217;52.694;6.214;2023-03-20T13:48:42;9.30;99.90
57390;DHT22;43217;52.694;6.214;2023-03-20T13:51:34;9.30;99.90
57390;DHT22;43217;52.694;6.214;2023-03-20T13:54:25;9.20;99.90
57390;DHT22;43217;52.694;6.214;2023-03-20T13:57:04;9.20;99.90
57390;DHT22;43217;52.694;6.214;2023-03-20T14:02:37;9.30;99.90
57390;DHT22;43217;52.694;6.214;2023-03-20T14:05:24;9.30;99.90
57390;DHT22;43217;52.694;6.214;2023-03-20T14:07:56;9.30;99.90
57390;DHT22;43217;52.694;6.214;2023-03-20T14:12:56;9.30;99.90
57390;DHT22;43217;52.694;6.214;2023-03-20T14:15:31;9.30;99.90
57390;DHT22;43217;52.694;6.214;2023-03-20T14:17:57;9.30;99.90
57390;DHT22;43217;52.694;6.214;2023-03-20T14:20:31;9.30;99.90
57390;DHT22;43217;52.694;6.214;2023-03-20T14:22:58;9.30;99.90
57390;DHT22;43217;52.694;6.214;2023-03-20T14:25:24;9.20;99.90
57390;DHT22;43217;52.694;6.214;2023-03-20T14:30:37;9.20;99.90
57390;DHT22;43217;52.694;6.214;2023-03-20T14:33:09;9.10;99.90
57390;DHT22;43217;52.694;6.214;2023-03-20T14:35:49;9.20;99.90
57390;DHT22;43217;52.694;6.214;2023-03-20T14:38:24;9.20;99.90
57390;DHT22;43217;52.694;6.214;2023-03-20T14:41:11;9.20;99.90
57390;DHT22;43217;52.694;6.214;2023-03-20T14:44:05;9.30;99.90
57390;DHT22;43217;52.694;6.214;2023-03-20T14:51:50;9.20;99.90
57390;DHT22;43217;52.694;6.214;2023-03-20T14:56:45;9.20;99.90
57390;DHT22;43217;52.694;6.214;2023-03-20T14:59:12;9.10;99.90
57390;DHT22;43217;52.694;6.214;2023-03-20T15:06:59;9.10;99.90
57390;DHT22;43217;52.694;6.214;2023-03-20T15:09:28;9.00;99.90
57390;DHT22;43217;52.694;6.214;2023-03-20T15:11:56;9.00;99.90
57390;DHT22;43217;52.694;6.214;2023-03-20T15:14:31;9.10;99.90
57390;DHT22;43217;52.694;6.214;2023-03-20T15:16:59;9.10;99.90
57390;DHT22;43217;52.694;6.214;2023-03-20T15:19:25;9.10;99.90
57390;DHT22;43217;52.694;6.214;2023-03-20T15:21:53;9.10;99.90
57390;DHT22;43217;52.694;6.214;2023-03-20T15:24:26;9.10;99.90
57390;DHT22;43217;52.694;6.214;2023-03-20T15:26:53;9.10;99.90
57390;DHT22;43217;52.694;6.214;2023-03-20T15:29:21;9.10;99.90
57390;DHT22;43217;52.694;6.214;2023-03-20T15:31:54;9.10;99.90
57390;DHT22;43217;52.694;6.214;2023-03-20T15:34:26;9.10;99.90
57390;DHT22;43217;52.694;6.214;2023-03-20T15:36:56;9.10;99.90
57390;DHT22;43217;52.694;6.214;2023-03-20T15:39:27;9.20;99.90
57390;DHT22;43217;52.694;6.214;2023-03-20T15:41:57;9.10;99.90
57390;DHT22;43217;52.694;6.214;2023-03-20T15:44:44;9.10;99.90
57390;DHT22;43217;52.694;6.214;2023-03-20T15:49:58;9.10;99.90
57390;DHT22;43217;52.694;6.214;2023-03-20T15:52:29;9.10;99.90
57390;DHT22;43217;52.694;6.214;2023-03-20T15:54:58;9.10;99.90
57390;DHT22;43217;52.694;6.214;2023-03-20T15:57:34;9.10;99.90
57390;DHT22;43217;52.694;6.214;2023-03-20T16:00:03;9.00;99.90
57390;DHT22;43217;52.694;6.214;2023-03-20T16:02:29;9.10;99.90
57390;DHT22;43217;52.694;6.214;2023-03-20T16:04:55;9.00;99.90
57390;DHT22;43217;52.694;6.214;2023-03-20T16:07:29;9.00;99.90
57390;DHT22;43217;52.694;6.214;2023-03-20T16:09:59;9.00;99.90
57390;DHT22;43217;52.694;6.214;2023-03-20T16:12:25;9.00;99.90
57390;DHT22;43217;52.694;6.214;2023-03-20T16:14:53;9.00;99.90
57390;DHT22;43217;52.694;6.214;2023-03-20T16:17:21;9.00;99.90
57390;DHT22;43217;52.694;6.214;2023-03-20T16:19:48;9.00;99.90
57390;DHT22;43217;52.694;6.214;2023-03-20T16:22:23;9.00;99.90
57390;DHT22;43217;52.694;6.214;2023-03-20T16:24:55;9.00;99.90
57390;DHT22;43217;52.694;6.214;2023-03-20T16:27:28;9.00;99.90
57390;DHT22;43217;52.694;6.214;2023-03-20T16:29:55;9.00;99.90
57390;DHT22;43217;52.694;6.214;2023-03-20T16:32:41;9.00;99.90
57390;DHT22;43217;52.694;6.214;2023-03-20T16:35:24;9.10;99.90
57390;DHT22;43217;52.694;6.214;2023-03-20T16:37:56;9.00;99.90
57390;DHT22;43217;52.694;6.214;2023-03-20T16:40:33;9.10;99.90
57390;DHT22;43217;52.694;6.214;2023-03-20T16:43:12;9.10;99.90
57390;DHT22;43217;52.694;6.214;2023-03-20T16:45:41;9.00;99.90
57390;DHT22;43217;52.694;6.214;2023-03-20T16:50:39;9.00;99.90
57390;DHT22;43217;52.694;6.214;2023-03-20T16:53:11;9.00;99.90
57390;DHT22;43217;52.694;6.214;2023-03-20T16:55:50;9.00;99.90
57390;DHT22;43217;52.694;6.214;2023-03-20T16:58:22;9.00;99.90
57390;DHT22;43217;52.694;6.214;2023-03-20T17:00:50;9.00;99.90
57390;DHT22;43217;52.694;6.214;2023-03-20T17:03:19;9.00;99.90
57390;DHT22;43217;52.694;6.214;2023-03-20T17:05:56;9.00;99.90
57390;DHT22;43217;52.694;6.214;2023-03-20T17:08:44;9.00;99.90
57390;DHT22;43217;52.694;6.214;2023-03-20T17:11:25;9.00;99.90
57390;DHT22;43217;52.694;6.214;2023-03-20T17:13:52;9.00;99.90
57390;DHT22;43217;52.694;6.214;2023-03-20T17:16:19;9.00;99.90
57390;DHT22;43217;52.694;6.214;2023-03-20T17:19:09;9.00;99.90
57390;DHT22;43217;52.694;6.214;2023-03-20T17:21:35;9.00;99.90
57390;DHT22;43217;52.694;6.214;2023-03-20T17:24:00;9.00;99.90
57390;DHT22;43217;52.694;6.214;2023-03-20T17:26:26;9.00;99.90
57390;DHT22;43217;52.694;6.214;2023-03-20T17:28:53;9.00;99.90
57390;DHT22;43217;52.694;6.214;2023-03-20T17:31:19;8.90;99.90
57390;DHT22;43217;52.694;6.214;2023-03-20T17:33:45;9.00;99.90
57390;DHT22;43217;52.694;6.214;2023-03-20T17:36:20;8.90;99.90
57390;DHT22;43217;52.694;6.214;2023-03-20T17:38:47;9.00;99.90
57390;DHT22;43217;52.694;6.214;2023-03-20T17:41:15;8.90;99.90
57390;DHT22;43217;52.694;6.214;2023-03-20T17:43:41;8.90;99.90
57390;DHT22;43217;52.694;6.214;2023-03-20T17:46:20;8.90;99.90